sensor_id;sensor_type;location;lat;lon;timestamp;P1;durP1;ratioP1;P2;durP2;ratioP2
26656;SDS011;14279;50.010;8.260;2024-02-26T00:02:31;2.07;;;1.87;;
26656;SDS011;14279;50.010;8.260;2024-02-26T00:05:44;1.73;;;1.63;;
26656;SDS011;14279;50.010;8.260;2024-02-26T00:08:16;1.50;;;1.40;;
26656;SDS011;14279;50.010;8.260;2024-02-26T00:12:10;2.00;;;1.80;;
26656;SDS011;14279;50.010;8.260;2024-02-26T00:19:02;8.83;;;1.73;;
26656;SDS011;14279;50.010;8.260;2024-02-26T00:22:13;2.37;;;1.27;;
26656;SDS011;14279;50.010;8.260;2024-02-26T00:25:00;1.30;;;1.20;;
26656;SDS011;14279;50.010;8.260;2024-02-26T00:27:53;1.43;;;1.33;;
26656;SDS011;14279;50.010;8.260;2024-02-26T00:30:41;1.50;;;1.40;;
26656;SDS011;14279;50.010;8.260;2024-02-26T00:33:40;1.30;;;1.20;;
26656;SDS011;14279;50.010;8.260;2024-02-26T00:36:46;1.60;;;1.50;;
26656;SDS011;14279;50.010;8.260;2024-02-26T00:39:27;1.57;;;1.47;;
26656;SDS011;14279;50.010;8.260;2024-02-26T00:42:41;1.87;;;1.47;;
26656;SDS011;14279;50.010;8.260;2024-02-26T00:49:04;1.67;;;1.53;;
26656;SDS011;14279;50.010;8.260;2024-02-26T00:51:42;2.00;;;1.73;;
26656;SDS011;14279;50.010;8.260;2024-02-26T00:58:10;1.50;;;1.40;;
26656;SDS011;14279;50.010;8.260;2024-02-26T01:00:36;1.77;;;1.67;;
26656;SDS011;14279;50.010;8.260;2024-02-26T01:03:01;2.50;;;1.67;;
26656;SDS011;14279;50.010;8.260;2024-02-26T01:05:27;1.87;;;1.60;;
26656;SDS011;14279;50.010;8.260;2024-02-26T01:07:52;3.07;;;1.33;;
26656;SDS011;14279;50.010;8.260;2024-02-26T01:10:18;1.70;;;1.60;;
26656;SDS011;14279;50.010;8.260;2024-02-26T01:12:43;2.13;;;1.57;;
26656;SDS011;14279;50.010;8.260;2024-02-26T01:15:08;2.07;;;1.40;;
26656;SDS011;14279;50.010;8.260;2024-02-26T01:17:34;1.70;;;1.60;;
26656;SDS011;14279;50.010;8.260;2024-02-26T01:20:00;1.73;;;1.63;;
26656;SDS011;14279;50.010;8.260;2024-02-26T01:22:25;3.13;;;1.70;;
26656;SDS011;14279;50.010;8.260;2024-02-26T01:24:50;1.77;;;1.60;;
26656;SDS011;14279;50.010;8.260;2024-02-26T01:27:16;2.83;;;1.50;;
26656;SDS011;14279;50.010;8.260;2024-02-26T01:29:41;3.77;;;1.63;;
26656;SDS011;14279;50.010;8.260;2024-02-26T01:32:07;2.23;;;1.97;;
26656;SDS011;14279;50.010;8.260;2024-02-26T01:34:32;1.90;;;1.63;;
26656;SDS011;14279;50.010;8.260;2024-02-26T01:36:58;2.00;;;1.80;;
26656;SDS011;14279;50.010;8.260;2024-02-26T01:39:23;2.30;;;1.73;;
26656;SDS011;14279;50.010;8.260;2024-02-26T01:41:49;2.53;;;1.03;;
26656;SDS011;14279;50.010;8.260;2024-02-26T01:44:14;2.30;;;1.70;;
26656;SDS011;14279;50.010;8.260;2024-02-26T01:46:41;1.60;;;1.50;;
26656;SDS011;14279;50.010;8.260;2024-02-26T01:49:07;2.73;;;1.77;;
26656;SDS011;14279;50.010;8.260;2024-02-26T01:51:37;1.43;;;1.33;;
26656;SDS011;14279;50.010;8.260;2024-02-26T01:54:04;1.90;;;1.70;;
26656;SDS011;14279;50.010;8.260;2024-02-26T01:56:32;2.23;;;1.53;;
26656;SDS011;14279;50.010;8.260;2024-02-26T01:59:00;5.70;;;1.50;;
26656;SDS011;14279;50.010;8.260;2024-02-26T02:01:27;1.37;;;1.27;;
26656;SDS011;14279;50.010;8.260;2024-02-26T02:04:01;1.70;;;1.30;;
26656;SDS011;14279;50.010;8.260;2024-02-26T02:06:26;1.67;;;1.57;;
26656;SDS011;14279;50.010;8.260;2024-02-26T02:08:54;1.77;;;1.57;;
26656;SDS011;14279;50.010;8.260;2024-02-26T02:11:19;4.03;;;1.87;;
26656;SDS011;14279;50.010;8.260;2024-02-26T02:13:47;1.73;;;1.63;;
26656;SDS011;14279;50.010;8.260;2024-02-26T02:16:12;2.30;;;1.50;;
26656;SDS011;14279;50.010;8.260;2024-02-26T02:18:42;2.03;;;1.60;;
26656;SDS011;14279;50.010;8.260;2024-02-26T02:21:07;4.20;;;1.70;;
26656;SDS011;14279;50.010;8.260;2024-02-26T02:23:32;2.03;;;1.40;;
26656;SDS011;14279;50.010;8.260;2024-02-26T02:25:58;2.40;;;1.57;;
26656;SDS011;14279;50.010;8.260;2024-02-26T02:28:24;1.87;;;1.77;;
26656;SDS011;14279;50.010;8.260;2024-02-26T02:30:52;2.00;;;1.77;;
26656;SDS011;14279;50.010;8.260;2024-02-26T02:33:17;2.20;;;2.00;;
26656;SDS011;14279;50.010;8.260;2024-02-26T02:35:43;1.57;;;1.47;;
26656;SDS011;14279;50.010;8.260;2024-02-26T02:38:08;2.67;;;2.00;;
26656;SDS011;14279;50.010;8.260;2024-02-26T02:40:34;2.23;;;1.60;;
26656;SDS011;14279;50.010;8.260;2024-02-26T02:43:00;2.00;;;1.80;;
26656;SDS011;14279;50.010;8.260;2024-02-26T02:45:27;4.07;;;1.53;;
26656;SDS011;14279;50.010;8.260;2024-02-26T02:47:53;3.40;;;1.90;;
26656;SDS011;14279;50.010;8.260;2024-02-26T02:50:18;3.23;;;2.07;;
26656;SDS011;14279;50.010;8.260;2024-02-26T02:52:43;2.57;;;1.60;;
26656;SDS011;14279;50.010;8.260;2024-02-26T02:55:08;1.90;;;1.80;;
26656;SDS011;14279;50.010;8.260;2024-02-26T02:57:34;1.90;;;1.80;;
26656;SDS011;14279;50.010;8.260;2024-02-26T02:59:59;2.07;;;1.87;;
26656;SDS011;14279;50.010;8.260;2024-02-26T03:02:24;1.60;;;1.50;;
26656;SDS011;14279;50.010;8.260;2024-02-26T03:04:50;1.93;;;1.50;;
26656;SDS011;14279;50.010;8.260;2024-02-26T03:07:15;2.17;;;1.97;;
26656;SDS011;14279;50.010;8.260;2024-02-26T03:09:40;1.70;;;1.60;;
26656;SDS011;14279;50.010;8.260;2024-02-26T03:12:06;2.70;;;2.17;;
26656;SDS011;14279;50.010;8.260;2024-02-26T03:14:31;3.43;;;2.00;;
26656;SDS011;14279;50.010;8.260;2024-02-26T03:16:56;3.40;;;2.17;;
26656;SDS011;14279;50.010;8.260;2024-02-26T03:19:22;2.83;;;1.87;;
26656;SDS011;14279;50.010;8.260;2024-02-26T03:21:47;1.60;;;1.40;;
26656;SDS011;14279;50.010;8.260;2024-02-26T03:24:13;2.10;;;2.00;;
26656;SDS011;14279;50.010;8.260;2024-02-26T03:26:38;3.40;;;1.70;;
26656;SDS011;14279;50.010;8.260;2024-02-26T03:29:03;1.73;;;1.63;;
26656;SDS011;14279;50.010;8.260;2024-02-26T03:31:29;2.10;;;1.90;;
26656;SDS011;14279;50.010;8.260;2024-02-26T03:33:54;2.50;;;1.63;;
26656;SDS011;14279;50.010;8.260;2024-02-26T03:36:20;3.03;;;1.90;;
26656;SDS011;14279;50.010;8.260;2024-02-26T03:38:46;2.60;;;2.07;;
26656;SDS011;14279;50.010;8.260;2024-02-26T03:41:12;2.57;;;1.80;;
26656;SDS011;14279;50.010;8.260;2024-02-26T03:43:37;1.80;;;1.67;;
26656;SDS011;14279;50.010;8.260;2024-02-26T03:46:02;3.37;;;2.03;;
26656;SDS011;14279;50.010;8.260;2024-02-26T03:48:28;6.63;;;2.13;;
26656;SDS011;14279;50.010;8.260;2024-02-26T03:50:53;1.73;;;1.63;;
26656;SDS011;14279;50.010;8.260;2024-02-26T03:53:18;2.40;;;2.20;;
26656;SDS011;14279;50.010;8.260;2024-02-26T03:55:43;2.80;;;2.03;;
26656;SDS011;14279;50.010;8.260;2024-02-26T03:58:09;4.50;;;2.37;;
26656;SDS011;14279;50.010;8.260;2024-02-26T04:00:34;2.40;;;2.20;;
26656;SDS011;14279;50.010;8.260;2024-02-26T04:02:59;3.67;;;2.50;;
26656;SDS011;14279;50.010;8.260;2024-02-26T04:05:25;2.63;;;2.37;;
26656;SDS011;14279;50.010;8.260;2024-02-26T04:07:50;3.00;;;2.20;;
26656;SDS011;14279;50.010;8.260;2024-02-26T04:10:15;3.10;;;2.80;;
26656;SDS011;14279;50.010;8.260;2024-02-26T04:12:41;3.53;;;2.87;;
26656;SDS011;14279;50.010;8.260;2024-02-26T04:15:10;9.27;;;2.80;;
26656;SDS011;14279;50.010;8.260;2024-02-26T04:17:36;3.00;;;2.70;;
26656;SDS011;14279;50.010;8.260;2024-02-26T04:20:02;10.67;;;3.03;;
26656;SDS011;14279;50.010;8.260;2024-02-26T04:22:38;4.80;;;2.77;;
26656;SDS011;14279;50.010;8.260;2024-02-26T04:25:03;3.20;;;2.80;;
26656;SDS011;14279;50.010;8.260;2024-02-26T04:27:28;6.37;;;2.80;;
26656;SDS011;14279;50.010;8.260;2024-02-26T04:29:54;3.30;;;2.87;;
26656;SDS011;14279;50.010;8.260;2024-02-26T04:32:20;3.33;;;2.83;;
26656;SDS011;14279;50.010;8.260;2024-02-26T04:34:45;2.43;;;2.23;;
26656;SDS011;14279;50.010;8.260;2024-02-26T04:37:11;3.80;;;2.83;;
26656;SDS011;14279;50.010;8.260;2024-02-26T04:39:40;3.10;;;2.80;;
26656;SDS011;14279;50.010;8.260;2024-02-26T04:42:05;3.40;;;2.70;;
26656;SDS011;14279;50.010;8.260;2024-02-26T04:44:31;2.70;;;2.50;;
26656;SDS011;14279;50.010;8.260;2024-02-26T04:46:56;2.97;;;2.63;;
26656;SDS011;14279;50.010;8.260;2024-02-26T04:49:22;4.83;;;2.57;;
26656;SDS011;14279;50.010;8.260;2024-02-26T04:51:47;4.37;;;2.87;;
26656;SDS011;14279;50.010;8.260;2024-02-26T04:54:13;12.33;;;3.10;;
26656;SDS011;14279;50.010;8.260;2024-02-26T04:56:38;4.57;;;3.43;;
26656;SDS011;14279;50.010;8.260;2024-02-26T04:59:04;3.70;;;2.77;;
26656;SDS011;14279;50.010;8.260;2024-02-26T05:01:29;5.80;;;3.03;;
26656;SDS011;14279;50.010;8.260;2024-02-26T05:03:54;13.70;;;2.77;;
26656;SDS011;14279;50.010;8.260;2024-02-26T05:06:19;5.07;;;2.90;;
26656;SDS011;14279;50.010;8.260;2024-02-26T05:08:45;4.80;;;3.10;;
26656;SDS011;14279;50.010;8.260;2024-02-26T05:11:11;7.63;;;3.17;;
26656;SDS011;14279;50.010;8.260;2024-02-26T05:13:36;4.80;;;3.70;;
26656;SDS011;14279;50.010;8.260;2024-02-26T05:16:01;3.43;;;3.10;;
26656;SDS011;14279;50.010;8.260;2024-02-26T05:18:27;4.27;;;3.43;;
26656;SDS011;14279;50.010;8.260;2024-02-26T05:20:54;4.27;;;2.73;;
26656;SDS011;14279;50.010;8.260;2024-02-26T05:23:26;3.87;;;3.47;;
26656;SDS011;14279;50.010;8.260;2024-02-26T05:25:54;5.60;;;3.13;;
26656;SDS011;14279;50.010;8.260;2024-02-26T05:33:06;4.47;;;3.43;;
26656;SDS011;14279;50.010;8.260;2024-02-26T05:35:36;3.87;;;3.50;;
26656;SDS011;14279;50.010;8.260;2024-02-26T05:38:08;4.60;;;3.53;;
26656;SDS011;14279;50.010;8.260;2024-02-26T05:40:34;4.50;;;3.40;;
26656;SDS011;14279;50.010;8.260;2024-02-26T05:42:59;5.70;;;3.40;;
26656;SDS011;14279;50.010;8.260;2024-02-26T05:46:10;4.97;;;3.27;;
26656;SDS011;14279;50.010;8.260;2024-02-26T05:52:15;4.90;;;4.07;;
26656;SDS011;14279;50.010;8.260;2024-02-26T05:55:39;4.03;;;3.40;;
26656;SDS011;14279;50.010;8.260;2024-02-26T06:03:06;3.87;;;3.13;;
26656;SDS011;14279;50.010;8.260;2024-02-26T06:05:42;3.60;;;3.27;;
26656;SDS011;14279;50.010;8.260;2024-02-26T06:09:17;8.17;;;3.10;;
26656;SDS011;14279;50.010;8.260;2024-02-26T06:11:43;5.10;;;3.80;;
26656;SDS011;14279;50.010;8.260;2024-02-26T06:14:09;5.83;;;4.40;;
26656;SDS011;14279;50.010;8.260;2024-02-26T06:16:36;10.23;;;4.37;;
26656;SDS011;14279;50.010;8.260;2024-02-26T06:19:02;5.87;;;3.97;;
26656;SDS011;14279;50.010;8.260;2024-02-26T06:21:37;6.77;;;4.23;;
26656;SDS011;14279;50.010;8.260;2024-02-26T06:24:23;6.00;;;3.93;;
26656;SDS011;14279;50.010;8.260;2024-02-26T06:26:48;6.43;;;4.13;;
26656;SDS011;14279;50.010;8.260;2024-02-26T06:29:14;5.40;;;4.37;;
26656;SDS011;14279;50.010;8.260;2024-02-26T06:31:57;8.50;;;4.10;;
26656;SDS011;14279;50.010;8.260;2024-02-26T06:34:23;5.07;;;4.60;;
26656;SDS011;14279;50.010;8.260;2024-02-26T06:37:09;6.17;;;4.87;;
26656;SDS011;14279;50.010;8.260;2024-02-26T06:39:38;6.80;;;3.90;;
26656;SDS011;14279;50.010;8.260;2024-02-26T06:42:04;6.03;;;4.77;;
26656;SDS011;14279;50.010;8.260;2024-02-26T06:44:39;9.73;;;4.80;;
26656;SDS011;14279;50.010;8.260;2024-02-26T06:47:05;5.27;;;4.33;;
26656;SDS011;14279;50.010;8.260;2024-02-26T06:49:37;7.70;;;4.10;;
26656;SDS011;14279;50.010;8.260;2024-02-26T06:52:03;5.93;;;4.60;;
26656;SDS011;14279;50.010;8.260;2024-02-26T06:54:29;6.97;;;5.10;;
26656;SDS011;14279;50.010;8.260;2024-02-26T06:56:55;7.83;;;4.40;;
26656;SDS011;14279;50.010;8.260;2024-02-26T06:59:22;8.40;;;5.13;;
26656;SDS011;14279;50.010;8.260;2024-02-26T07:01:48;5.77;;;5.07;;
26656;SDS011;14279;50.010;8.260;2024-02-26T07:04:13;9.70;;;5.17;;
26656;SDS011;14279;50.010;8.260;2024-02-26T07:06:48;6.33;;;4.97;;
26656;SDS011;14279;50.010;8.260;2024-02-26T07:09:18;14.87;;;5.97;;
26656;SDS011;14279;50.010;8.260;2024-02-26T07:11:45;11.30;;;5.90;;
26656;SDS011;14279;50.010;8.260;2024-02-26T07:14:12;13.03;;;6.23;;
26656;SDS011;14279;50.010;8.260;2024-02-26T07:16:38;7.23;;;5.80;;
26656;SDS011;14279;50.010;8.260;2024-02-26T07:19:03;7.33;;;5.53;;
26656;SDS011;14279;50.010;8.260;2024-02-26T07:21:29;9.43;;;5.27;;
26656;SDS011;14279;50.010;8.260;2024-02-26T07:23:55;7.30;;;5.20;;
26656;SDS011;14279;50.010;8.260;2024-02-26T07:26:20;14.20;;;6.33;;
26656;SDS011;14279;50.010;8.260;2024-02-26T07:29:04;6.53;;;5.40;;
26656;SDS011;14279;50.010;8.260;2024-02-26T07:31:35;11.03;;;5.63;;
26656;SDS011;14279;50.010;8.260;2024-02-26T07:34:01;6.80;;;5.03;;
26656;SDS011;14279;50.010;8.260;2024-02-26T07:36:30;8.17;;;5.60;;
26656;SDS011;14279;50.010;8.260;2024-02-26T07:38:55;5.97;;;5.37;;
26656;SDS011;14279;50.010;8.260;2024-02-26T07:41:24;7.60;;;5.50;;
26656;SDS011;14279;50.010;8.260;2024-02-26T07:43:50;9.07;;;5.93;;
26656;SDS011;14279;50.010;8.260;2024-02-26T07:46:15;7.77;;;5.80;;
26656;SDS011;14279;50.010;8.260;2024-02-26T07:48:43;12.50;;;6.20;;
26656;SDS011;14279;50.010;8.260;2024-02-26T07:51:34;12.03;;;6.30;;
26656;SDS011;14279;50.010;8.260;2024-02-26T07:54:44;12.10;;;5.90;;
26656;SDS011;14279;50.010;8.260;2024-02-26T07:57:17;7.23;;;5.80;;
26656;SDS011;14279;50.010;8.260;2024-02-26T07:59:53;11.33;;;6.03;;
26656;SDS011;14279;50.010;8.260;2024-02-26T08:02:19;8.10;;;5.70;;
26656;SDS011;14279;50.010;8.260;2024-02-26T08:05:03;7.20;;;6.30;;
26656;SDS011;14279;50.010;8.260;2024-02-26T08:07:50;9.20;;;6.13;;
26656;SDS011;14279;50.010;8.260;2024-02-26T08:10:25;7.43;;;5.90;;
26656;SDS011;14279;50.010;8.260;2024-02-26T08:17:02;9.07;;;6.60;;
26656;SDS011;14279;50.010;8.260;2024-02-26T08:19:29;8.50;;;6.00;;
26656;SDS011;14279;50.010;8.260;2024-02-26T08:22:01;9.73;;;6.43;;
26656;SDS011;14279;50.010;8.260;2024-02-26T08:24:56;10.10;;;6.20;;
26656;SDS011;14279;50.010;8.260;2024-02-26T08:27:22;9.83;;;5.83;;
26656;SDS011;14279;50.010;8.260;2024-02-26T08:29:52;11.03;;;6.20;;
26656;SDS011;14279;50.010;8.260;2024-02-26T08:33:08;6.33;;;5.30;;
26656;SDS011;14279;50.010;8.260;2024-02-26T08:35:38;5.70;;;5.10;;
26656;SDS011;14279;50.010;8.260;2024-02-26T08:38:27;15.30;;;6.07;;
26656;SDS011;14279;50.010;8.260;2024-02-26T08:41:01;10.53;;;5.63;;
26656;SDS011;14279;50.010;8.260;2024-02-26T08:43:49;8.70;;;5.77;;
26656;SDS011;14279;50.010;8.260;2024-02-26T08:46:15;7.30;;;5.20;;
26656;SDS011;14279;50.010;8.260;2024-02-26T08:48:40;6.90;;;5.13;;
26656;SDS011;14279;50.010;8.260;2024-02-26T08:51:09;6.77;;;5.30;;
26656;SDS011;14279;50.010;8.260;2024-02-26T08:53:35;10.83;;;5.80;;
26656;SDS011;14279;50.010;8.260;2024-02-26T08:56:02;10.67;;;6.30;;
26656;SDS011;14279;50.010;8.260;2024-02-26T08:59:29;9.87;;;5.27;;
26656;SDS011;14279;50.010;8.260;2024-02-26T09:01:59;9.07;;;6.13;;
26656;SDS011;14279;50.010;8.260;2024-02-26T09:04:25;7.53;;;5.90;;
26656;SDS011;14279;50.010;8.260;2024-02-26T09:06:52;7.80;;;5.67;;
26656;SDS011;14279;50.010;8.260;2024-02-26T09:09:20;8.00;;;5.80;;
26656;SDS011;14279;50.010;8.260;2024-02-26T09:12:08;8.33;;;5.00;;
26656;SDS011;14279;50.010;8.260;2024-02-26T09:14:33;5.90;;;5.07;;
26656;SDS011;14279;50.010;8.260;2024-02-26T09:16:59;7.47;;;4.97;;
26656;SDS011;14279;50.010;8.260;2024-02-26T09:19:25;8.47;;;5.73;;
26656;SDS011;14279;50.010;8.260;2024-02-26T09:21:52;8.17;;;4.83;;
26656;SDS011;14279;50.010;8.260;2024-02-26T09:24:19;7.50;;;5.00;;
26656;SDS011;14279;50.010;8.260;2024-02-26T09:26:44;12.87;;;5.80;;
26656;SDS011;14279;50.010;8.260;2024-02-26T09:29:10;9.80;;;6.47;;
26656;SDS011;14279;50.010;8.260;2024-02-26T09:31:38;7.33;;;5.67;;
26656;SDS011;14279;50.010;8.260;2024-02-26T09:34:06;9.80;;;5.80;;
26656;SDS011;14279;50.010;8.260;2024-02-26T09:36:35;5.97;;;5.33;;
26656;SDS011;14279;50.010;8.260;2024-02-26T09:39:01;6.87;;;5.40;;
26656;SDS011;14279;50.010;8.260;2024-02-26T09:41:37;6.73;;;5.43;;
26656;SDS011;14279;50.010;8.260;2024-02-26T09:44:06;8.33;;;5.23;;
26656;SDS011;14279;50.010;8.260;2024-02-26T09:47:03;5.90;;;4.63;;
26656;SDS011;14279;50.010;8.260;2024-02-26T09:49:34;6.70;;;5.13;;
26656;SDS011;14279;50.010;8.260;2024-02-26T09:52:00;10.50;;;5.80;;
26656;SDS011;14279;50.010;8.260;2024-02-26T09:54:27;9.43;;;5.70;;
26656;SDS011;14279;50.010;8.260;2024-02-26T09:56:56;7.40;;;5.50;;
26656;SDS011;14279;50.010;8.260;2024-02-26T09:59:25;9.20;;;5.50;;
26656;SDS011;14279;50.010;8.260;2024-02-26T10:01:50;10.90;;;6.50;;
26656;SDS011;14279;50.010;8.260;2024-02-26T10:04:17;9.43;;;5.70;;
26656;SDS011;14279;50.010;8.260;2024-02-26T10:06:43;8.33;;;6.30;;
26656;SDS011;14279;50.010;8.260;2024-02-26T10:09:09;10.60;;;5.70;;
26656;SDS011;14279;50.010;8.260;2024-02-26T10:11:35;8.10;;;5.73;;
26656;SDS011;14279;50.010;8.260;2024-02-26T10:14:02;7.77;;;6.17;;
26656;SDS011;14279;50.010;8.260;2024-02-26T10:16:33;8.10;;;5.63;;
26656;SDS011;14279;50.010;8.260;2024-02-26T10:21:58;8.73;;;5.80;;
26656;SDS011;14279;50.010;8.260;2024-02-26T10:24:31;10.13;;;6.50;;
26656;SDS011;14279;50.010;8.260;2024-02-26T10:26:56;7.20;;;5.47;;
26656;SDS011;14279;50.010;8.260;2024-02-26T10:29:23;8.57;;;6.00;;
26656;SDS011;14279;50.010;8.260;2024-02-26T10:31:50;5.87;;;5.27;;
26656;SDS011;14279;50.010;8.260;2024-02-26T10:34:19;7.50;;;5.70;;
26656;SDS011;14279;50.010;8.260;2024-02-26T10:38:14;8.33;;;6.50;;
26656;SDS011;14279;50.010;8.260;2024-02-26T10:43:56;11.70;;;5.57;;
26656;SDS011;14279;50.010;8.260;2024-02-26T10:46:23;7.57;;;5.70;;
26656;SDS011;14279;50.010;8.260;2024-02-26T10:49:17;7.80;;;5.43;;
26656;SDS011;14279;50.010;8.260;2024-02-26T10:51:58;11.57;;;7.00;;
26656;SDS011;14279;50.010;8.260;2024-02-26T10:54:27;8.73;;;5.63;;
26656;SDS011;14279;50.010;8.260;2024-02-26T10:57:34;7.17;;;5.73;;
26656;SDS011;14279;50.010;8.260;2024-02-26T11:00:55;9.63;;;6.23;;
26656;SDS011;14279;50.010;8.260;2024-02-26T11:03:21;8.87;;;6.07;;
26656;SDS011;14279;50.010;8.260;2024-02-26T11:05:48;19.43;;;7.03;;
26656;SDS011;14279;50.010;8.260;2024-02-26T11:08:14;7.30;;;6.10;;
26656;SDS011;14279;50.010;8.260;2024-02-26T11:10:41;10.70;;;7.10;;
26656;SDS011;14279;50.010;8.260;2024-02-26T11:13:07;8.00;;;6.00;;
26656;SDS011;14279;50.010;8.260;2024-02-26T11:15:39;7.37;;;5.97;;
26656;SDS011;14279;50.010;8.260;2024-02-26T11:18:06;8.20;;;5.67;;
26656;SDS011;14279;50.010;8.260;2024-02-26T11:20:32;6.57;;;5.70;;
26656;SDS011;14279;50.010;8.260;2024-02-26T11:22:59;8.80;;;6.30;;
26656;SDS011;14279;50.010;8.260;2024-02-26T11:25:24;9.93;;;5.90;;
26656;SDS011;14279;50.010;8.260;2024-02-26T11:27:54;7.60;;;5.47;;
26656;SDS011;14279;50.010;8.260;2024-02-26T11:30:24;6.73;;;5.80;;
26656;SDS011;14279;50.010;8.260;2024-02-26T11:32:51;10.00;;;6.10;;
26656;SDS011;14279;50.010;8.260;2024-02-26T11:35:17;9.83;;;5.83;;
26656;SDS011;14279;50.010;8.260;2024-02-26T11:37:53;10.13;;;6.70;;
26656;SDS011;14279;50.010;8.260;2024-02-26T11:40:19;8.27;;;5.67;;
26656;SDS011;14279;50.010;8.260;2024-02-26T11:42:45;9.00;;;6.20;;
26656;SDS011;14279;50.010;8.260;2024-02-26T11:48:20;10.93;;;6.30;;
26656;SDS011;14279;50.010;8.260;2024-02-26T11:51:00;7.97;;;5.77;;
26656;SDS011;14279;50.010;8.260;2024-02-26T11:53:58;7.40;;;5.60;;
26656;SDS011;14279;50.010;8.260;2024-02-26T11:57:41;6.40;;;5.20;;
26656;SDS011;14279;50.010;8.260;2024-02-26T12:01:40;7.03;;;5.37;;
26656;SDS011;14279;50.010;8.260;2024-02-26T12:05:22;11.40;;;5.80;;
26656;SDS011;14279;50.010;8.260;2024-02-26T12:08:27;5.97;;;4.80;;
26656;SDS011;14279;50.010;8.260;2024-02-26T12:11:15;7.53;;;5.00;;
26656;SDS011;14279;50.010;8.260;2024-02-26T12:13:59;11.37;;;5.83;;
26656;SDS011;14279;50.010;8.260;2024-02-26T12:16:42;8.70;;;5.40;;
26656;SDS011;14279;50.010;8.260;2024-02-26T12:19:50;6.70;;;4.53;;
26656;SDS011;14279;50.010;8.260;2024-02-26T12:23:16;10.13;;;5.40;;
26656;SDS011;14279;50.010;8.260;2024-02-26T12:34:14;7.27;;;5.27;;
26656;SDS011;14279;50.010;8.260;2024-02-26T12:45:29;6.27;;;4.60;;
26656;SDS011;14279;50.010;8.260;2024-02-26T12:49:10;5.87;;;4.80;;
26656;SDS011;14279;50.010;8.260;2024-02-26T13:11:22;8.20;;;4.80;;
26656;SDS011;14279;50.010;8.260;2024-02-26T13:15:20;6.27;;;4.57;;
26656;SDS011;14279;50.010;8.260;2024-02-26T13:19:31;5.43;;;4.47;;
26656;SDS011;14279;50.010;8.260;2024-02-26T13:23:12;5.67;;;4.80;;
26656;SDS011;14279;50.010;8.260;2024-02-26T13:27:01;7.83;;;5.30;;
26656;SDS011;14279;50.010;8.260;2024-02-26T13:30:35;5.30;;;4.30;;
26656;SDS011;14279;50.010;8.260;2024-02-26T13:33:12;5.00;;;4.50;;
26656;SDS011;14279;50.010;8.260;2024-02-26T13:35:46;8.10;;;4.60;;
26656;SDS011;14279;50.010;8.260;2024-02-26T13:42:07;7.90;;;4.70;;
26656;SDS011;14279;50.010;8.260;2024-02-26T13:45:41;8.33;;;4.50;;
26656;SDS011;14279;50.010;8.260;2024-02-26T13:48:18;5.87;;;4.47;;
26656;SDS011;14279;50.010;8.260;2024-02-26T13:51:05;5.30;;;4.60;;
26656;SDS011;14279;50.010;8.260;2024-02-26T13:53:56;6.60;;;4.67;;
26656;SDS011;14279;50.010;8.260;2024-02-26T13:56:36;7.60;;;4.53;;
26656;SDS011;14279;50.010;8.260;2024-02-26T14:00:15;7.10;;;4.50;;
26656;SDS011;14279;50.010;8.260;2024-02-26T14:03:10;8.70;;;4.10;;
26656;SDS011;14279;50.010;8.260;2024-02-26T14:05:36;7.20;;;4.73;;
26656;SDS011;14279;50.010;8.260;2024-02-26T14:08:01;8.50;;;4.93;;
26656;SDS011;14279;50.010;8.260;2024-02-26T14:10:26;4.73;;;4.17;;
26656;SDS011;14279;50.010;8.260;2024-02-26T14:12:52;6.80;;;5.13;;
26656;SDS011;14279;50.010;8.260;2024-02-26T14:15:19;7.00;;;4.70;;
26656;SDS011;14279;50.010;8.260;2024-02-26T14:17:44;9.50;;;5.13;;
26656;SDS011;14279;50.010;8.260;2024-02-26T14:20:11;5.80;;;4.70;;
26656;SDS011;14279;50.010;8.260;2024-02-26T14:22:39;4.73;;;4.07;;
26656;SDS011;14279;50.010;8.260;2024-02-26T14:25:05;5.47;;;4.67;;
26656;SDS011;14279;50.010;8.260;2024-02-26T14:27:30;6.20;;;4.10;;
26656;SDS011;14279;50.010;8.260;2024-02-26T14:29:55;6.40;;;4.27;;
26656;SDS011;14279;50.010;8.260;2024-02-26T14:32:21;10.10;;;4.43;;
26656;SDS011;14279;50.010;8.260;2024-02-26T14:34:47;5.73;;;4.53;;
26656;SDS011;14279;50.010;8.260;2024-02-26T14:37:14;4.90;;;4.20;;
26656;SDS011;14279;50.010;8.260;2024-02-26T14:40:02;6.17;;;4.13;;
26656;SDS011;14279;50.010;8.260;2024-02-26T14:42:40;8.90;;;4.43;;
26656;SDS011;14279;50.010;8.260;2024-02-26T14:45:05;4.77;;;3.80;;
26656;SDS011;14279;50.010;8.260;2024-02-26T14:47:34;5.60;;;4.40;;
26656;SDS011;14279;50.010;8.260;2024-02-26T14:50:04;4.20;;;3.80;;
26656;SDS011;14279;50.010;8.260;2024-02-26T14:52:30;5.63;;;3.90;;
26656;SDS011;14279;50.010;8.260;2024-02-26T14:54:56;6.23;;;4.37;;
26656;SDS011;14279;50.010;8.260;2024-02-26T14:57:22;6.10;;;4.53;;
26656;SDS011;14279;50.010;8.260;2024-02-26T14:59:48;6.27;;;4.53;;
26656;SDS011;14279;50.010;8.260;2024-02-26T15:02:15;4.47;;;4.07;;
26656;SDS011;14279;50.010;8.260;2024-02-26T15:04:41;7.77;;;3.93;;
26656;SDS011;14279;50.010;8.260;2024-02-26T15:07:06;4.87;;;4.30;;
26656;SDS011;14279;50.010;8.260;2024-02-26T15:09:31;4.87;;;4.17;;
26656;SDS011;14279;50.010;8.260;2024-02-26T15:11:56;5.47;;;3.97;;
26656;SDS011;14279;50.010;8.260;2024-02-26T15:14:22;4.20;;;3.80;;
26656;SDS011;14279;50.010;8.260;2024-02-26T15:16:48;6.30;;;4.70;;
26656;SDS011;14279;50.010;8.260;2024-02-26T15:19:13;7.40;;;4.33;;
26656;SDS011;14279;50.010;8.260;2024-02-26T15:21:44;10.13;;;4.13;;
26656;SDS011;14279;50.010;8.260;2024-02-26T15:24:13;6.40;;;4.30;;
26656;SDS011;14279;50.010;8.260;2024-02-26T15:26:41;5.07;;;3.90;;
26656;SDS011;14279;50.010;8.260;2024-02-26T15:29:07;4.53;;;3.80;;
26656;SDS011;14279;50.010;8.260;2024-02-26T15:31:33;7.30;;;4.43;;
26656;SDS011;14279;50.010;8.260;2024-02-26T15:33:59;5.23;;;3.80;;
26656;SDS011;14279;50.010;8.260;2024-02-26T15:36:25;6.70;;;4.60;;
26656;SDS011;14279;50.010;8.260;2024-02-26T15:38:50;4.03;;;3.63;;
26656;SDS011;14279;50.010;8.260;2024-02-26T15:41:15;8.03;;;4.63;;
26656;SDS011;14279;50.010;8.260;2024-02-26T15:43:42;5.87;;;4.23;;
26656;SDS011;14279;50.010;8.260;2024-02-26T15:46:07;8.60;;;3.90;;
26656;SDS011;14279;50.010;8.260;2024-02-26T15:48:33;4.80;;;3.73;;
26656;SDS011;14279;50.010;8.260;2024-02-26T15:50:58;6.00;;;4.13;;
26656;SDS011;14279;50.010;8.260;2024-02-26T15:53:23;5.50;;;3.87;;
26656;SDS011;14279;50.010;8.260;2024-02-26T15:55:49;6.70;;;4.40;;
26656;SDS011;14279;50.010;8.260;2024-02-26T15:58:14;5.43;;;4.40;;
26656;SDS011;14279;50.010;8.260;2024-02-26T16:00:40;5.97;;;4.43;;
26656;SDS011;14279;50.010;8.260;2024-02-26T16:03:08;5.67;;;3.83;;
26656;SDS011;14279;50.010;8.260;2024-02-26T16:05:34;5.17;;;4.67;;
26656;SDS011;14279;50.010;8.260;2024-02-26T16:08:02;4.67;;;3.97;;
26656;SDS011;14279;50.010;8.260;2024-02-26T16:10:32;3.57;;;3.23;;
26656;SDS011;14279;50.010;8.260;2024-02-26T16:12:58;9.30;;;4.33;;
26656;SDS011;14279;50.010;8.260;2024-02-26T16:15:28;4.90;;;4.10;;
26656;SDS011;14279;50.010;8.260;2024-02-26T16:17:54;5.87;;;4.07;;
26656;SDS011;14279;50.010;8.260;2024-02-26T16:20:23;6.23;;;4.80;;
26656;SDS011;14279;50.010;8.260;2024-02-26T16:22:54;8.50;;;4.23;;
26656;SDS011;14279;50.010;8.260;2024-02-26T16:25:19;5.17;;;4.07;;
26656;SDS011;14279;50.010;8.260;2024-02-26T16:27:45;18.43;;;4.87;;
26656;SDS011;14279;50.010;8.260;2024-02-26T16:30:11;7.63;;;3.83;;
26656;SDS011;14279;50.010;8.260;2024-02-26T16:32:38;7.40;;;3.80;;
26656;SDS011;14279;50.010;8.260;2024-02-26T16:35:40;3.67;;;3.33;;
26656;SDS011;14279;50.010;8.260;2024-02-26T16:38:12;5.27;;;4.30;;
26656;SDS011;14279;50.010;8.260;2024-02-26T16:40:51;7.60;;;3.77;;
26656;SDS011;14279;50.010;8.260;2024-02-26T16:43:31;4.70;;;3.57;;
26656;SDS011;14279;50.010;8.260;2024-02-26T16:50:11;5.97;;;3.87;;